Flight Track Log - Related Links

Times and Time Zones

All times are in EDT time to prevent confusion due to time zone crossing. See the ASQ5685 flight status page for this flight to view local times or setup timezone preferences in your user account.

Time Position Orientation Groundspeed Altitude Reporting Facility
EDT Latitude Longitude Course Direction KTS MPH feet Rate Location/Type
Sun 09:24:56 AM 33.6117 -84.5253 53° Northeast 385 443 3,100  Level Atlanta Center
Sun 09:25:42 AM 33.5833 -84.5833 240° Southwest 262 302 5,300 2,660 Climbing Atlanta TRACON
Sun 09:26:00 AM 33.8588 -84.1639 73° East  Level Estimated
Sun 09:26:42 AM 33.5000 -84.5833 180° South 253 291 7,800  Level Atlanta TRACON
Sun 09:27:00 AM 33.9328 -84.0756 54° Northeast  Level Estimated
Sun 09:28:00 AM 33.9055 -83.9546 105° East  Level FlightAware Approximate
Sun 09:28:56 AM 33.4536 -84.4047 107° East 302 348 11,200  Level Atlanta Center
Sun 09:29:00 AM 33.9802 -83.8671 48° Northeast  Level Estimated
Sun 09:29:56 AM 33.4622 -84.2878 85° East 339 390 12,500  Level Atlanta Center
Sun 09:30:00 AM 34.0548 -83.7796 53° Northeast  Level Estimated
Sun 09:30:56 AM 33.5458 -84.2183 35° Northeast 332 382 14,000  Level Atlanta Center
Sun 09:31:56 AM 33.6378 -84.1561 29° Northeast 350 403 15,400 1,250 Climbing Atlanta Center
Sun 09:32:56 AM 33.7336 -84.0914 29° Northeast 378 435 16,500 1,100 Climbing Atlanta Center
Sun 09:33:56 AM 33.7942 -83.9814 56° Northeast 378 435 17,600 950 Climbing Atlanta Center
Sun 09:34:56 AM 33.8506 -83.8661 59° Northeast 383 441 18,400 850 Climbing Atlanta Center
Sun 09:35:56 AM 33.9086 -83.7508 59° Northeast 395 455 19,300 800 Climbing Atlanta Center
Sun 09:36:56 AM 33.9772 -83.6381 54° Northeast 409 471 20,000 700 Climbing Atlanta Center
Sun 09:37:56 AM 34.0478 -83.5275 52° Northeast 409 471 20,700 750 Climbing Atlanta Center
Sun 09:38:56 AM 34.1183 -83.4139 53° Northeast 415 478 21,500 750 Climbing Atlanta Center
Sun 09:39:56 AM 34.1906 -83.3006 52° Northeast 420 483 22,200 650 Climbing Atlanta Center
Sun 09:40:56 AM 34.2525 -83.1969 54° Northeast 420 483 22,800 650 Climbing Atlanta Center
Sun 09:41:56 AM 34.3228 -83.0806 54° Northeast 425 489 23,500 700 Climbing Atlanta Center
Sun 09:42:56 AM 34.3947 -82.9664 53° Northeast 425 489 24,200 700 Climbing Atlanta Center
Sun 09:43:56 AM 34.4689 -82.8469 53° Northeast 430 495 24,900 700 Climbing Atlanta Center
Sun 09:44:56 AM 34.5428 -82.7375 51° Northeast 430 495 25,600 700 Climbing Atlanta Center
Sun 09:45:56 AM 34.6103 -82.6178 56° Northeast 430 495 26,300 700 Climbing Atlanta Center
Sun 09:46:56 AM 34.6822 -82.5056 52° Northeast 424 488 27,000 350 Climbing Atlanta Center
Sun 09:47:56 AM 34.7558 -82.3878 53° Northeast 424 488 27,000  Level Atlanta Center
Sun 09:48:56 AM 34.8272 -82.2700 54° Northeast 424 488 27,000  Level Atlanta Center
Sun 09:49:56 AM 34.9006 -82.1494 53° Northeast 431 496 27,000  Level Atlanta Center
Sun 09:50:56 AM 34.9778 -82.0208 54° Northeast 436 502 27,000  Level Atlanta Center
Sun 09:51:56 AM 35.0447 -81.9103 53° Northeast 436 502 27,000  Level Atlanta Center
Sun 09:52:56 AM 35.1133 -81.7842 56° Northeast 441 507 27,000  Level Atlanta Center
Sun 09:53:56 AM 35.1778 -81.6553 59° Northeast 441 507 27,000  Level Atlanta Center
Sun 09:54:56 AM 35.2461 -81.5261 57° Northeast 441 507 27,000  Level Atlanta Center
Sun 09:55:56 AM 35.3142 -81.3967 57° Northeast 446 513 27,000  Level Atlanta Center
Sun 09:56:56 AM 35.3781 -81.2675 59° Northeast 446 513 27,000  Level Atlanta Center
Sun 09:57:56 AM 35.4483 -81.1375 56° Northeast 451 519 27,000  Level Atlanta Center
Sun 09:58:56 AM 35.5181 -81.0025 58° Northeast 457 526 27,000  Level Atlanta Center
Sun 09:59:56 AM 35.5856 -80.8722 57° Northeast 457 526 27,000  Level Atlanta Center
Sun 10:00:56 AM 35.6550 -80.7392 57° Northeast 463 533 27,000  Level Atlanta Center
Sun 10:01:56 AM 35.7225 -80.6086 57° Northeast 458 527 27,000  Level Atlanta Center
Sun 10:02:56 AM 35.7897 -80.4753 58° Northeast 458 527 27,000  Level Atlanta Center
Sun 10:03:56 AM 35.8586 -80.3442 57° Northeast 458 527 27,000  Level Atlanta Center
Sun 10:06:23 AM 36.0306 -80.0097 57° Northeast 458 527 27,000  Level Washington Center
Sun 10:07:20 AM 36.1022 -79.8800 56° Northeast 453 521 27,000  Level Washington Center
Sun 10:08:21 AM 36.1778 -79.7503 54° Northeast 453 521 27,000  Level Washington Center
Sun 10:09:21 AM 36.2511 -79.6178 56° Northeast 458 527 27,000  Level Washington Center
Sun 10:10:22 AM 36.3264 -79.4850 55° Northeast 458 527 27,000  Level Washington Center
Sun 10:11:22 AM 36.3953 -79.3567 56° Northeast 458 527 27,000  Level Washington Center
Sun 10:12:23 AM 36.4703 -79.2236 55° Northeast 458 527 27,000  Level Washington Center
Sun 10:13:21 AM 36.5450 -79.0953 54° Northeast 458 527 27,000 -305 Level Washington Center
Sun 10:14:21 AM 36.6197 -78.9639 55° Northeast 458 527 26,400 -800 Descending Washington Center
Sun 10:15:21 AM 36.6836 -78.8397 57° Northeast 463 533 25,400 -694 Descending Washington Center
Sun 10:16:22 AM 36.7539 -78.7106 56° Northeast 463 533 25,000 -202 Descending Washington Center
Sun 10:17:20 AM 36.8347 -78.5683 55° Northeast 458 527 25,000  Level Washington Center
Sun 10:18:21 AM 36.9117 -78.4961 37° Northeast 434 499 25,000  Level Washington Center
Sun 10:19:22 AM 37.0372 -78.3942 33° Northeast 434 499 25,000  Level Washington Center
Sun 10:20:23 AM 37.1411 -78.3119 32° Northeast 434 499 25,000  Level Washington Center
Sun 10:21:21 AM 37.2325 -78.2369 33° Northeast 442 509 25,000 -203 Level Washington Center
Sun 10:22:21 AM 37.3344 -78.1542 33° Northeast 442 509 24,600 -1,091 Descending Washington Center
Sun 10:23:22 AM 37.4364 -78.0686 34° Northeast 442 509 22,800 -1,279 Descending Washington Center
Sun 10:24:23 AM 37.5406 -77.9831 33° Northeast 442 509 22,000 -403 Descending Washington Center
Sun 10:25:21 AM 37.6381 -77.9022 33° Northeast 442 509 22,000 -706 Level Washington Center
Sun 10:26:22 AM 37.7333 -77.8236 33° Northeast 431 496 20,600 -1,869 Descending Washington Center
Sun 10:27:23 AM 37.8286 -77.7397 35° Northeast 419 482 18,200 -2,269 Descending Washington Center
Sun 10:28:21 AM 37.9281 -77.6611 32° Northeast 419 482 16,100 -2,288 Descending Washington Center
Sun 10:29:21 AM 38.0192 -77.5792 35° Northeast 414 476 13,700 -2,380 Descending Washington Center
Sun 10:30:22 AM 38.1100 -77.5103 31° Northeast 401 461 11,300 -1,835 Descending Washington Center
Sun 10:31:22 AM 38.1922 -77.4436 33° Northeast 369 425 10,000 -793 Descending Washington Center
Sun 10:32:23 AM 38.2700 -77.4033 22° Northeast 326 375 9,700 -992 Descending Washington Center
Sun 10:33:23 AM 38.3517 -77.3814 12° North 305 351 8,000 -2,085 Descending Washington Center
Sun 10:34:21 AM 38.4314 -77.3622 11° North 288 331 5,600 -2,017 Descending Washington Center
Sun 10:35:22 AM 38.4975 -77.3956 338° Northwest 258 297 4,000 -793 Descending Washington Center
Sun 10:36:22 AM 38.5614 -77.4450 329° Northwest 259 298 4,000  Level Washington Center
Sun 10:37:22 AM 38.6364 -77.4442 360° North 253 291 4,000 -424 Level Washington Center
Sun 10:37:47 AM 38.6833 -77.4333 10° North 276 318 3,400 -635 Descending Potomac TRACON
Sun 10:38:47 AM 38.7500 -77.4333 360° North 271 312 3,100 -526 Descending Potomac TRACON
Sun 10:39:41 AM 38.8167 -77.4333 360° North 236 272 2,400 -778 Descending Potomac TRACON

Login

Don't have an account? Register now (free) for customized features, flight alerts, and more!